Time;durP1;ratioP1;P1;durP2;ratioP2;P2;SDS_P1;SDS_P2;PMS_P1;PMS_P2;Temp;Humidity;BMP_temperature;BMP_pressure;BME280_temperature;BME280_humidity;BME280_pressure;Samples;Min_cycle;Max_cycle;Signal;HPM_P1;HPM_P2
2023/08/09 00:02:16;;;;;;;1.88;1.50;;;;;;;;;;5021277;28;20053;-85
2023/08/09 00:04:41;;;;;;;4.13;1.58;;;;;;;;;;5009618;28;20042;-81
2023/08/09 00:07:09;;;;;;;3.90;1.48;;;;;;;;;;5028635;28;20361;-85
2023/08/09 00:09:35;;;;;;;1.40;1.30;;;;;;;;;;5020932;28;20057;-79
2023/08/09 00:12:00;;;;;;;2.47;1.50;;;;;;;;;;5007338;28;20034;-81
2023/08/09 00:14:26;;;;;;;4.38;1.65;;;;;;;;;;5006212;28;20065;-80
2023/08/09 00:16:51;;;;;;;1.55;1.45;;;;;;;;;;5003775;28;20105;-79
2023/08/09 00:19:16;;;;;;;9.68;1.73;;;;;;;;;;5005960;28;20051;-81
2023/08/09 00:21:42;;;;;;;1.50;1.40;;;;;;;;;;5021137;28;20125;-79
2023/08/09 00:24:07;;;;;;;2.03;1.75;;;;;;;;;;5022434;28;20090;-81
2023/08/09 00:26:33;;;;;;;1.80;1.50;;;;;;;;;;5020394;28;20015;-81
2023/08/09 00:28:58;;;;;;;2.05;1.35;;;;;;;;;;5006427;28;20042;-80
2023/08/09 00:31:26;;;;;;;1.88;1.65;;;;;;;;;;4998360;28;20049;-82
2023/08/09 00:33:52;;;;;;;1.50;1.40;;;;;;;;;;5000129;28;20326;-84
2023/08/09 00:36:17;;;;;;;1.73;1.58;;;;;;;;;;5022951;28;20045;-82
2023/08/09 00:38:43;;;;;;;5.32;1.70;;;;;;;;;;5012341;28;20524;-83
2023/08/09 00:41:08;;;;;;;1.75;1.40;;;;;;;;;;5003925;28;20030;-82
2023/08/09 00:43:33;;;;;;;2.13;1.60;;;;;;;;;;5000422;28;20432;-84
2023/08/09 00:45:59;;;;;;;1.80;1.55;;;;;;;;;;5015554;28;20492;-83
2023/08/09 00:48:24;;;;;;;4.13;1.75;;;;;;;;;;5008489;28;20030;-82
2023/08/09 00:50:50;;;;;;;1.33;1.30;;;;;;;;;;5006394;28;20021;-83
2023/08/09 00:53:16;;;;;;;1.70;1.60;;;;;;;;;;5005366;28;20494;-81
2023/08/09 00:55:41;;;;;;;1.45;1.35;;;;;;;;;;5022357;28;20030;-82
2023/08/09 00:58:07;;;;;;;2.03;1.55;;;;;;;;;;5006818;28;20053;-82
2023/08/09 01:00:33;;;;;;;3.60;2.03;;;;;;;;;;5025021;28;20042;-81
2023/08/09 01:03:01;;;;;;;1.83;1.60;;;;;;;;;;5010124;28;20493;-82
2023/08/09 01:05:54;;;;;;;1.85;1.50;;;;;;;;;;5006769;28;20228;-81
2023/08/09 01:08:40;;;;;;;2.15;1.65;;;;;;;;;;5004737;28;20099;-82
2023/08/09 01:11:20;;;;;;;2.25;1.63;;;;;;;;;;5004868;28;20042;-82
2023/08/09 01:13:48;;;;;;;3.15;1.80;;;;;;;;;;5002497;28;20046;-82
2023/08/09 01:16:17;;;;;;;4.25;1.60;;;;;;;;;;4997520;28;20060;-83
2023/08/09 01:18:43;;;;;;;3.30;1.58;;;;;;;;;;5002948;28;20491;-82
2023/08/09 01:21:08;;;;;;;2.25;1.70;;;;;;;;;;5018651;28;20651;-83
2023/08/09 01:23:38;;;;;;;1.77;1.58;;;;;;;;;;5015372;28;20029;-82
2023/08/09 01:26:04;;;;;;;2.17;1.60;;;;;;;;;;5000525;28;20061;-81
2023/08/09 01:28:31;;;;;;;3.03;1.60;;;;;;;;;;5004244;28;20993;-81
2023/08/09 01:30:57;;;;;;;1.48;1.38;;;;;;;;;;5001802;28;20119;-83
2023/08/09 01:33:23;;;;;;;7.47;1.42;;;;;;;;;;5002824;28;20040;-82
2023/08/09 01:36:04;;;;;;;4.72;1.58;;;;;;;;;;5011590;28;20117;-82
2023/08/09 01:38:35;;;;;;;1.38;1.30;;;;;;;;;;5008871;28;20030;-83
2023/08/09 01:41:01;;;;;;;1.63;1.52;;;;;;;;;;5004824;28;20039;-82
2023/08/09 01:43:28;;;;;;;2.42;1.63;;;;;;;;;;5000345;28;20514;-82
2023/08/09 01:45:54;;;;;;;1.85;1.52;;;;;;;;;;5010594;28;20041;-82
2023/08/09 01:48:20;;;;;;;2.05;1.60;;;;;;;;;;5011976;28;20018;-84
2023/08/09 01:50:45;;;;;;;1.92;1.60;;;;;;;;;;5009950;28;20030;-84
2023/08/09 01:53:11;;;;;;;2.47;1.50;;;;;;;;;;5011138;28;20030;-82
2023/08/09 01:55:38;;;;;;;1.63;1.52;;;;;;;;;;5022927;28;20662;-80
2023/08/09 01:58:04;;;;;;;4.45;1.70;;;;;;;;;;5020961;28;20035;-82
2023/08/09 02:00:29;;;;;;;2.67;1.48;;;;;;;;;;5020568;28;20408;-82
2023/08/09 02:02:54;;;;;;;1.70;1.38;;;;;;;;;;5007550;28;20416;-82
2023/08/09 02:05:21;;;;;;;2.95;1.27;;;;;;;;;;5002580;28;20034;-80
2023/08/09 02:07:46;;;;;;;2.75;1.80;;;;;;;;;;5012633;28;20040;-79
2023/08/09 02:10:12;;;;;;;1.60;1.40;;;;;;;;;;5019797;28;20038;-81
2023/08/09 02:12:39;;;;;;;1.65;1.55;;;;;;;;;;5003489;28;20044;-80
2023/08/09 02:15:08;;;;;;;1.70;1.60;;;;;;;;;;5027165;28;20120;-84
2023/08/09 02:17:36;;;;;;;2.85;1.65;;;;;;;;;;5000433;28;20030;-81
2023/08/09 02:20:04;;;;;;;1.88;1.30;;;;;;;;;;5003064;28;20050;-81
2023/08/09 02:22:36;;;;;;;2.67;1.30;;;;;;;;;;5001972;28;20014;-83
2023/08/09 02:25:03;;;;;;;1.50;1.40;;;;;;;;;;5000075;28;20039;-82
2023/08/09 02:27:28;;;;;;;1.50;1.40;;;;;;;;;;5006103;28;20116;-80
2023/08/09 02:29:55;;;;;;;1.67;1.58;;;;;;;;;;5006461;28;20026;-82
2023/08/09 02:32:20;;;;;;;1.45;1.35;;;;;;;;;;5005079;28;20030;-80
2023/08/09 02:34:45;;;;;;;1.70;1.60;;;;;;;;;;5011071;28;20034;-82
2023/08/09 02:37:11;;;;;;;1.42;1.33;;;;;;;;;;5021677;28;20026;-81
2023/08/09 02:39:36;;;;;;;1.83;1.55;;;;;;;;;;5008417;28;20034;-81
2023/08/09 02:42:02;;;;;;;2.55;1.80;;;;;;;;;;5001214;28;20229;-82
2023/08/09 02:44:29;;;;;;;2.28;1.70;;;;;;;;;;5002658;28;20045;-82
2023/08/09 02:46:58;;;;;;;3.58;1.70;;;;;;;;;;5002843;28;20022;-82
2023/08/09 02:49:24;;;;;;;1.60;1.48;;;;;;;;;;5012863;28;20030;-83
2023/08/09 02:51:49;;;;;;;1.63;1.52;;;;;;;;;;5025974;28;20505;-81
2023/08/09 02:54:15;;;;;;;1.55;1.45;;;;;;;;;;5005707;28;20041;-82
2023/08/09 02:56:40;;;;;;;1.50;1.38;;;;;;;;;;5008439;28;20128;-84
2023/08/09 02:59:05;;;;;;;3.90;1.70;;;;;;;;;;5000520;28;20057;-83
2023/08/09 03:01:30;;;;;;;1.65;1.52;;;;;;;;;;5010839;28;21234;-83
2023/08/09 03:03:56;;;;;;;1.90;1.70;;;;;;;;;;5005684;28;20037;-81
2023/08/09 03:06:22;;;;;;;1.50;1.40;;;;;;;;;;4998855;28;20050;-84
2023/08/09 03:08:51;;;;;;;3.25;1.63;;;;;;;;;;5007280;28;20030;-83
2023/08/09 03:11:24;;;;;;;2.40;1.50;;;;;;;;;;5003717;28;20037;-81
2023/08/09 03:13:51;;;;;;;2.55;1.60;;;;;;;;;;5002180;28;20045;-80
2023/08/09 03:16:16;;;;;;;3.50;1.70;;;;;;;;;;5008829;28;20034;-83
2023/08/09 03:18:41;;;;;;;3.60;1.60;;;;;;;;;;5004703;28;20402;-84
2023/08/09 03:21:07;;;;;;;4.22;1.45;;;;;;;;;;5008828;28;20037;-81
2023/08/09 03:23:33;;;;;;;2.03;1.38;;;;;;;;;;5017010;28;20021;-80
2023/08/09 03:25:58;;;;;;;3.10;1.75;;;;;;;;;;5000261;28;20124;-81
2023/08/09 03:28:24;;;;;;;3.22;1.48;;;;;;;;;;4997013;28;20035;-80
2023/08/09 03:30:49;;;;;;;3.05;1.30;;;;;;;;;;5007353;28;20038;-80
2023/08/09 03:33:15;;;;;;;2.83;1.70;;;;;;;;;;5002652;28;20018;-79
2023/08/09 03:35:40;;;;;;;1.80;1.52;;;;;;;;;;5007243;28;20027;-81
2023/08/09 03:38:05;;;;;;;1.88;1.48;;;;;;;;;;5006096;28;20022;-79
2023/08/09 03:40:31;;;;;;;1.73;1.25;;;;;;;;;;5008341;28;20129;-80
2023/08/09 03:42:56;;;;;;;4.88;1.77;;;;;;;;;;5009037;28;20114;-79
2023/08/09 03:45:22;;;;;;;1.58;1.45;;;;;;;;;;5024268;28;20098;-79
2023/08/09 03:47:47;;;;;;;1.50;1.40;;;;;;;;;;5012129;28;20021;-81
2023/08/09 03:50:13;;;;;;;2.03;1.48;;;;;;;;;;5003123;28;20133;-83
2023/08/09 03:52:38;;;;;;;2.10;1.60;;;;;;;;;;5005475;28;20133;-82
2023/08/09 03:55:06;;;;;;;2.70;1.50;;;;;;;;;;5003194;28;20561;-80
2023/08/09 03:57:31;;;;;;;2.22;1.45;;;;;;;;;;5000085;28;20307;-81
2023/08/09 03:59:57;;;;;;;1.63;1.40;;;;;;;;;;4999458;28;20088;-81
2023/08/09 04:02:22;;;;;;;1.73;1.50;;;;;;;;;;5005101;28;20079;-82
2023/08/09 04:04:47;;;;;;;1.75;1.40;;;;;;;;;;5005134;28;20553;-80
2023/08/09 04:07:13;;;;;;;1.42;1.30;;;;;;;;;;5006666;28;20042;-81
2023/08/09 04:09:39;;;;;;;1.52;1.40;;;;;;;;;;5008625;28;20053;-81
2023/08/09 04:12:05;;;;;;;2.15;1.60;;;;;;;;;;5023395;28;20030;-81
2023/08/09 04:14:30;;;;;;;1.90;1.67;;;;;;;;;;5022244;28;20117;-79
2023/08/09 04:16:58;;;;;;;2.30;2.10;;;;;;;;;;5006722;28;20031;-82
2023/08/09 04:19:26;;;;;;;1.33;1.23;;;;;;;;;;5007795;28;20442;-81
2023/08/09 04:21:53;;;;;;;1.35;1.25;;;;;;;;;;5007489;28;20037;-80
2023/08/09 04:24:19;;;;;;;1.52;1.42;;;;;;;;;;5008833;28;20462;-81
2023/08/09 04:26:44;;;;;;;2.72;1.60;;;;;;;;;;5018598;28;20048;-80
2023/08/09 04:29:10;;;;;;;3.40;1.48;;;;;;;;;;5009609;28;20037;-80
2023/08/09 04:31:36;;;;;;;1.83;1.50;;;;;;;;;;5012821;28;20026;-82
2023/08/09 04:34:02;;;;;;;2.35;1.30;;;;;;;;;;5009047;28;20062;-81
2023/08/09 04:36:28;;;;;;;1.55;1.45;;;;;;;;;;5013725;28;20861;-82
2023/08/09 04:38:53;;;;;;;3.92;1.50;;;;;;;;;;5009566;28;20029;-80
2023/08/09 04:41:19;;;;;;;2.85;1.83;;;;;;;;;;5007829;28;20659;-81
2023/08/09 04:43:44;;;;;;;4.55;1.75;;;;;;;;;;5007500;28;20518;-81
2023/08/09 04:46:13;;;;;;;5.53;2.05;;;;;;;;;;5004366;28;20030;-81
2023/08/09 04:48:40;;;;;;;2.47;1.90;;;;;;;;;;5012032;28;20033;-81
2023/08/09 04:51:07;;;;;;;3.05;1.90;;;;;;;;;;5005827;28;20026;-80
2023/08/09 04:53:32;;;;;;;2.40;1.70;;;;;;;;;;5006636;28;20030;-82
2023/08/09 04:55:58;;;;;;;2.25;1.80;;;;;;;;;;5003796;28;20050;-81
2023/08/09 04:58:23;;;;;;;2.78;1.95;;;;;;;;;;5010551;28;20038;-81
2023/08/09 05:00:48;;;;;;;3.00;2.50;;;;;;;;;;5008731;28;20616;-82
2023/08/09 05:03:14;;;;;;;2.22;1.75;;;;;;;;;;5021900;28;20029;-81
2023/08/09 05:05:39;;;;;;;2.33;2.08;;;;;;;;;;5010974;28;20312;-80
2023/08/09 05:08:04;;;;;;;2.65;1.80;;;;;;;;;;5009952;28;20026;-80
2023/08/09 05:10:30;;;;;;;2.38;2.00;;;;;;;;;;5005105;28;20022;-81
2023/08/09 05:12:55;;;;;;;3.45;1.75;;;;;;;;;;5013073;28;20091;-82
2023/08/09 05:15:21;;;;;;;3.00;2.00;;;;;;;;;;5009640;28;20022;-81
2023/08/09 05:17:46;;;;;;;2.47;1.77;;;;;;;;;;5007073;28;20027;-82
2023/08/09 05:20:12;;;;;;;2.92;1.90;;;;;;;;;;5005846;28;20048;-81
2023/08/09 05:22:37;;;;;;;1.63;1.52;;;;;;;;;;5009306;28;20038;-81
2023/08/09 05:25:03;;;;;;;2.05;1.83;;;;;;;;;;5020959;28;20134;-83
2023/08/09 05:27:28;;;;;;;2.38;1.63;;;;;;;;;;5006056;28;20041;-82
2023/08/09 05:29:53;;;;;;;2.60;1.80;;;;;;;;;;5004986;28;20435;-81
2023/08/09 05:32:23;;;;;;;7.00;1.73;;;;;;;;;;5008366;28;20397;-82
2023/08/09 05:34:48;;;;;;;2.25;1.95;;;;;;;;;;5007920;28;20065;-80
2023/08/09 05:37:13;;;;;;;2.05;1.85;;;;;;;;;;5005363;28;20487;-82
2023/08/09 05:39:39;;;;;;;3.50;1.88;;;;;;;;;;5020605;28;20077;-81
2023/08/09 05:42:04;;;;;;;2.30;1.80;;;;;;;;;;5004881;28;20018;-81
2023/08/09 05:44:30;;;;;;;5.07;2.20;;;;;;;;;;5019105;28;20017;-81
2023/08/09 05:46:55;;;;;;;4.50;1.73;;;;;;;;;;5005645;28;20030;-81
2023/08/09 05:49:21;;;;;;;3.08;2.10;;;;;;;;;;5008724;28;20034;-80
2023/08/09 05:51:46;;;;;;;3.58;2.08;;;;;;;;;;5006040;28;20141;-80
2023/08/09 05:54:12;;;;;;;4.53;1.90;;;;;;;;;;5011096;28;20045;-82
2023/08/09 05:56:38;;;;;;;3.50;1.83;;;;;;;;;;5010506;28;20095;-80
2023/08/09 05:59:04;;;;;;;2.92;1.55;;;;;;;;;;5004229;28;20042;-81
2023/08/09 06:01:29;;;;;;;1.85;1.73;;;;;;;;;;4998989;28;20043;-83
2023/08/09 06:03:55;;;;;;;3.30;2.10;;;;;;;;;;5007068;28;20038;-82
2023/08/09 06:06:21;;;;;;;1.85;1.67;;;;;;;;;;5008549;28;20019;-83
2023/08/09 06:08:46;;;;;;;2.55;1.65;;;;;;;;;;5004797;28;20018;-83
2023/08/09 06:11:12;;;;;;;1.88;1.42;;;;;;;;;;5021820;28;20029;-82
2023/08/09 06:13:37;;;;;;;1.92;1.73;;;;;;;;;;5010394;28;20038;-82
2023/08/09 06:16:02;;;;;;;3.00;2.05;;;;;;;;;;5006073;28;20061;-82
2023/08/09 06:18:28;;;;;;;3.63;2.10;;;;;;;;;;5002510;28;20040;-81
2023/08/09 06:20:54;;;;;;;1.75;1.65;;;;;;;;;;5006022;28;20103;-81
2023/08/09 06:23:20;;;;;;;3.28;1.88;;;;;;;;;;5001829;28;20041;-83
2023/08/09 06:25:47;;;;;;;3.13;1.85;;;;;;;;;;5005345;28;20482;-80
2023/08/09 06:28:13;;;;;;;2.15;1.85;;;;;;;;;;5005812;28;20026;-81
2023/08/09 06:30:38;;;;;;;3.80;1.85;;;;;;;;;;5005302;28;20037;-81
2023/08/09 06:33:04;;;;;;;1.85;1.70;;;;;;;;;;5009164;28;20104;-80
2023/08/09 06:35:30;;;;;;;2.72;2.00;;;;;;;;;;5006719;28;20397;-81
2023/08/09 06:37:55;;;;;;;2.08;1.90;;;;;;;;;;5005666;28;20435;-81
2023/08/09 06:40:20;;;;;;;2.05;1.90;;;;;;;;;;5001658;28;20088;-83
2023/08/09 06:42:46;;;;;;;2.92;1.80;;;;;;;;;;5002541;28;20034;-82
2023/08/09 06:45:11;;;;;;;4.20;1.77;;;;;;;;;;5006708;28;20051;-82
2023/08/09 06:47:37;;;;;;;5.65;1.67;;;;;;;;;;5008071;28;20034;-81
2023/08/09 06:50:06;;;;;;;3.03;1.75;;;;;;;;;;5018450;28;20100;-83
2023/08/09 06:52:33;;;;;;;1.83;1.73;;;;;;;;;;5003852;28;20030;-83
2023/08/09 06:54:58;;;;;;;2.70;1.65;;;;;;;;;;5010832;28;20034;-81
2023/08/09 06:57:24;;;;;;;2.53;1.88;;;;;;;;;;5007194;28;20041;-81
2023/08/09 06:59:51;;;;;;;2.30;1.98;;;;;;;;;;5009596;28;20541;-82
2023/08/09 07:02:16;;;;;;;3.28;2.30;;;;;;;;;;5005596;28;20053;-82
2023/08/09 07:04:42;;;;;;;2.55;1.85;;;;;;;;;;5001882;28;20533;-82
2023/08/09 07:07:07;;;;;;;6.03;2.00;;;;;;;;;;5027629;28;20033;-82
2023/08/09 07:09:33;;;;;;;3.17;1.73;;;;;;;;;;5002872;28;20140;-82
2023/08/09 07:11:58;;;;;;;4.28;1.92;;;;;;;;;;5006471;28;20545;-81
2023/08/09 07:14:24;;;;;;;4.10;1.80;;;;;;;;;;5005169;28;20057;-82
2023/08/09 07:16:49;;;;;;;5.20;2.00;;;;;;;;;;5022932;28;20037;-82
2023/08/09 07:19:15;;;;;;;1.80;1.70;;;;;;;;;;5023285;28;20401;-82
2023/08/09 07:21:40;;;;;;;3.72;2.00;;;;;;;;;;5006356;28;20038;-83
2023/08/09 07:24:06;;;;;;;2.30;2.10;;;;;;;;;;5008076;28;20036;-80
2023/08/09 07:26:31;;;;;;;3.33;1.83;;;;;;;;;;5024797;28;20033;-82
2023/08/09 07:28:57;;;;;;;3.22;1.95;;;;;;;;;;5006228;28;20037;-82
2023/08/09 07:31:24;;;;;;;2.05;1.95;;;;;;;;;;5010670;28;20049;-82
2023/08/09 07:33:51;;;;;;;2.30;2.10;;;;;;;;;;5018837;28;20034;-82
2023/08/09 07:36:16;;;;;;;2.92;1.88;;;;;;;;;;5001593;28;20467;-80
2023/08/09 07:38:42;;;;;;;1.80;1.65;;;;;;;;;;5020915;28;20018;-79
2023/08/09 07:41:09;;;;;;;3.20;2.03;;;;;;;;;;5008126;28;20766;-81
2023/08/09 07:43:35;;;;;;;4.25;2.10;;;;;;;;;;5016526;28;20037;-81
2023/08/09 07:46:03;;;;;;;1.98;1.77;;;;;;;;;;5006862;28;20465;-81
2023/08/09 07:48:29;;;;;;;3.35;2.13;;;;;;;;;;5027222;28;20120;-83
2023/08/09 07:50:54;;;;;;;4.07;1.60;;;;;;;;;;5014736;28;20099;-82
2023/08/09 07:53:19;;;;;;;2.22;1.80;;;;;;;;;;5011182;28;20031;-81
2023/08/09 07:55:45;;;;;;;1.88;1.77;;;;;;;;;;5010975;28;20038;-82
2023/08/09 07:58:10;;;;;;;3.72;1.80;;;;;;;;;;5009524;28;20050;-82
2023/08/09 08:00:35;;;;;;;2.05;1.70;;;;;;;;;;5012713;28;20034;-83
2023/08/09 08:03:01;;;;;;;1.60;1.50;;;;;;;;;;5005588;28;20018;-81
2023/08/09 08:05:26;;;;;;;5.25;1.77;;;;;;;;;;5007186;28;20363;-83
2023/08/09 08:07:51;;;;;;;2.13;1.33;;;;;;;;;;5020947;28;20029;-81
2023/08/09 08:10:18;;;;;;;1.80;1.60;;;;;;;;;;5020447;28;20038;-83
2023/08/09 08:12:45;;;;;;;1.80;1.40;;;;;;;;;;5010366;28;20038;-82
2023/08/09 08:15:12;;;;;;;1.55;1.45;;;;;;;;;;5015714;28;20052;-82
2023/08/09 08:17:38;;;;;;;2.78;1.60;;;;;;;;;;5017640;28;20021;-83
2023/08/09 08:20:10;;;;;;;1.98;1.60;;;;;;;;;;5010651;28;20093;-84
2023/08/09 08:22:35;;;;;;;4.28;1.90;;;;;;;;;;5015748;28;20040;-85
2023/08/09 08:25:00;;;;;;;3.60;1.52;;;;;;;;;;5006171;28;20086;-85
2023/08/09 08:27:25;;;;;;;1.75;1.52;;;;;;;;;;5011655;28;20394;-83
2023/08/09 08:29:54;;;;;;;1.75;1.65;;;;;;;;;;5011547;28;20057;-84
2023/08/09 08:32:19;;;;;;;2.22;1.45;;;;;;;;;;5015811;28;20030;-84
2023/08/09 08:34:44;;;;;;;2.22;1.70;;;;;;;;;;5010676;28;20498;-86
2023/08/09 08:37:10;;;;;;;3.33;1.30;;;;;;;;;;5009374;28;20034;-80
2023/08/09 08:39:38;;;;;;;3.78;1.75;;;;;;;;;;5018201;28;20132;-83
2023/08/09 08:42:03;;;;;;;1.50;1.40;;;;;;;;;;4999077;28;20069;-81
2023/08/09 08:44:47;;;;;;;;;;;;;;;;;;;;;
2023/08/09 08:47:13;;;;;;;1.25;1.25;;;;;;;;;;4997649;28;20201;-82
2023/08/09 08:49:44;;;;;;;3.00;1.58;;;;;;;;;;5008524;28;20506;-81
2023/08/09 08:52:12;;;;;;;3.38;1.40;;;;;;;;;;5002745;28;20052;-80
2023/08/09 08:54:37;;;;;;;5.10;2.00;;;;;;;;;;5004440;28;20528;-82
2023/08/09 08:57:03;;;;;;;1.60;1.30;;;;;;;;;;5006348;28;20066;-80
2023/08/09 08:59:29;;;;;;;1.73;1.40;;;;;;;;;;5008588;28;20038;-81
2023/08/09 09:01:55;;;;;;;2.88;1.77;;;;;;;;;;5003439;28;20586;-80
2023/08/09 09:04:20;;;;;;;1.42;1.33;;;;;;;;;;5007072;28;20076;-81
2023/08/09 09:06:46;;;;;;;1.85;1.50;;;;;;;;;;5003993;28;20030;-81
2023/08/09 09:09:15;;;;;;;1.75;1.42;;;;;;;;;;5005051;28;20047;-81
2023/08/09 09:11:43;;;;;;;2.17;1.88;;;;;;;;;;5020366;28;20042;-81
2023/08/09 09:14:15;;;;;;;2.20;1.80;;;;;;;;;;5006759;28;20414;-81
2023/08/09 09:16:42;;;;;;;2.65;1.70;;;;;;;;;;5007114;28;20078;-81
2023/08/09 09:19:09;;;;;;;2.95;1.60;;;;;;;;;;5004160;28;20271;-80
2023/08/09 09:21:35;;;;;;;1.85;1.35;;;;;;;;;;5003575;28;20042;-82
2023/08/09 09:24:08;;;;;;;2.25;1.50;;;;;;;;;;5034640;23;20030;-77
2023/08/09 09:26:35;;;;;;;1.83;1.73;;;;;;;;;;4988339;28;20120;-77
2023/08/09 09:29:00;;;;;;;1.55;1.45;;;;;;;;;;4998343;28;20142;-77
2023/08/09 09:31:36;;;;;;;1.48;1.38;;;;;;;;;;4999693;28;20527;-78
2023/08/09 09:34:02;;;;;;;3.40;1.58;;;;;;;;;;5003359;28;20053;-78
2023/08/09 09:36:28;;;;;;;3.05;1.90;;;;;;;;;;4997658;28;20197;-78
2023/08/09 09:38:53;;;;;;;3.83;1.70;;;;;;;;;;5014306;28;20073;-78
2023/08/09 09:41:20;;;;;;;2.17;1.58;;;;;;;;;;4986579;28;20050;-77
2023/08/09 09:43:47;;;;;;;3.00;1.55;;;;;;;;;;5002886;28;20030;-77
2023/08/09 09:46:25;;;;;;;2.38;1.85;;;;;;;;;;4998654;28;20069;-77
2023/08/09 09:49:01;;;;;;;1.88;1.70;;;;;;;;;;4995313;28;20034;-77
2023/08/09 09:51:27;;;;;;;7.30;1.88;;;;;;;;;;4997456;28;20468;-77
2023/08/09 09:53:53;;;;;;;3.60;1.95;;;;;;;;;;5000924;28;20033;-77
2023/08/09 09:56:19;;;;;;;1.95;1.80;;;;;;;;;;4998127;28;20053;-77
2023/08/09 09:58:45;;;;;;;3.17;1.70;;;;;;;;;;4995612;28;20061;-77
2023/08/09 10:01:13;;;;;;;3.22;1.60;;;;;;;;;;4996579;28;20045;-78
2023/08/09 10:03:42;;;;;;;2.17;1.70;;;;;;;;;;4998276;28;20577;-78
2023/08/09 10:06:14;;;;;;;2.67;1.88;;;;;;;;;;4999769;28;20444;-77
2023/08/09 10:08:40;;;;;;;1.85;1.65;;;;;;;;;;4998513;28;20029;-78
2023/08/09 10:11:08;;;;;;;2.58;1.77;;;;;;;;;;4993647;28;20041;-78
2023/08/09 10:13:34;;;;;;;3.47;1.70;;;;;;;;;;5014985;28;20362;-77
2023/08/09 10:16:02;;;;;;;2.25;1.70;;;;;;;;;;4998208;28;20037;-78
2023/08/09 10:18:39;;;;;;;2.53;1.60;;;;;;;;;;5013362;28;20077;-78
2023/08/09 10:21:05;;;;;;;2.55;1.80;;;;;;;;;;5015931;28;20048;-78
2023/08/09 10:23:31;;;;;;;2.33;1.70;;;;;;;;;;5000588;28;20026;-78
2023/08/09 10:25:57;;;;;;;2.08;1.77;;;;;;;;;;4997745;28;20038;-78
2023/08/09 10:28:43;;;;;;;6.28;2.03;;;;;;;;;;4999727;28;20113;-78
2023/08/09 10:31:08;;;;;;;18.05;10.57;;;;;;;;;;4997557;28;20038;-78
2023/08/09 10:33:33;;;;;;;17.08;8.60;;;;;;;;;;4994626;28;20045;-78
2023/08/09 10:35:59;;;;;;;7.97;5.03;;;;;;;;;;5001816;28;20312;-78
2023/08/09 10:38:30;;;;;;;5.20;3.53;;;;;;;;;;4999379;28;20101;-78
2023/08/09 10:40:55;;;;;;;5.97;3.85;;;;;;;;;;5008266;28;20120;-78
2023/08/09 10:43:23;;;;;;;9.90;3.30;;;;;;;;;;5000445;28;20050;-78
2023/08/09 10:45:51;;;;;;;3.10;2.45;;;;;;;;;;5014823;28;20042;-78
2023/08/09 10:48:25;;;;;;;2.28;2.08;;;;;;;;;;5003038;28;20030;-78
2023/08/09 10:51:00;;;;;;;6.28;3.00;;;;;;;;;;5001521;28;20092;-77
2023/08/09 10:53:27;;;;;;;3.40;3.10;;;;;;;;;;4998525;28;20085;-78
2023/08/09 10:55:56;;;;;;;2.97;1.88;;;;;;;;;;4996455;28;20133;-77
2023/08/09 10:58:27;;;;;;;2.75;1.95;;;;;;;;;;4994920;28;20030;-77
2023/08/09 11:00:53;;;;;;;4.05;2.03;;;;;;;;;;4997984;28;20065;-79
2023/08/09 11:03:19;;;;;;;3.70;2.10;;;;;;;;;;4996512;28;20018;-77
2023/08/09 11:05:45;;;;;;;10.05;2.17;;;;;;;;;;4997213;28;20395;-77
2023/08/09 11:08:16;;;;;;;4.65;1.92;;;;;;;;;;4996414;28;20085;-78
2023/08/09 11:10:42;;;;;;;2.83;1.60;;;;;;;;;;5002118;28;20030;-79
2023/08/09 11:13:15;;;;;;;6.10;1.85;;;;;;;;;;5011370;28;20414;-78
2023/08/09 11:15:45;;;;;;;3.30;1.63;;;;;;;;;;4998699;28;20338;-78
2023/08/09 11:18:11;;;;;;;2.72;2.10;;;;;;;;;;4993733;28;20045;-78
2023/08/09 11:20:36;;;;;;;2.45;1.73;;;;;;;;;;4999432;28;20030;-78
2023/08/09 11:23:03;;;;;;;9.27;3.60;;;;;;;;;;4997195;28;20034;-78
2023/08/09 11:25:31;;;;;;;2.80;1.60;;;;;;;;;;5016653;28;20405;-78
2023/08/09 11:27:58;;;;;;;2.60;1.80;;;;;;;;;;4999272;28;20501;-78
2023/08/09 11:30:24;;;;;;;1.65;1.55;;;;;;;;;;5000293;28;22856;-77
2023/08/09 11:33:01;;;;;;;5.38;2.05;;;;;;;;;;5002703;28;20018;-78
2023/08/09 11:35:39;;;;;;;2.47;2.00;;;;;;;;;;5002832;28;20046;-78
2023/08/09 11:38:07;;;;;;;2.33;1.60;;;;;;;;;;4996524;28;20031;-78
2023/08/09 11:40:50;;;;;;;2.50;1.70;;;;;;;;;;5001799;28;20386;-78
2023/08/09 11:43:17;;;;;;;1.75;1.65;;;;;;;;;;5004086;28;20331;-76
2023/08/09 11:45:52;;;;;;;2.97;1.60;;;;;;;;;;5000483;28;20048;-77
2023/08/09 11:48:24;;;;;;;1.88;1.50;;;;;;;;;;5020177;28;20061;-77
2023/08/09 11:51:05;;;;;;;2.55;1.77;;;;;;;;;;5001223;28;20034;-78
2023/08/09 11:53:32;;;;;;;6.15;2.83;;;;;;;;;;4999306;28;20051;-77
2023/08/09 11:56:04;;;;;;;1.77;1.67;;;;;;;;;;5005003;28;20116;-78
2023/08/09 11:58:32;;;;;;;1.92;1.75;;;;;;;;;;4996955;28;20039;-78
2023/08/09 12:00:58;;;;;;;2.08;1.60;;;;;;;;;;4999737;28;20529;-78
2023/08/09 12:03:24;;;;;;;3.03;1.90;;;;;;;;;;5000116;28;20092;-78
2023/08/09 12:05:53;;;;;;;2.00;1.70;;;;;;;;;;5012268;28;20033;-78
2023/08/09 12:08:32;;;;;;;2.35;1.52;;;;;;;;;;4996959;28;20061;-77
2023/08/09 12:10:57;;;;;;;4.95;1.80;;;;;;;;;;5014744;28;20034;-78
2023/08/09 12:13:23;;;;;;;4.57;1.73;;;;;;;;;;4999136;28;20030;-78
2023/08/09 12:15:48;;;;;;;3.15;1.88;;;;;;;;;;5015383;28;20053;-78
2023/08/09 12:18:14;;;;;;;3.13;1.50;;;;;;;;;;4998463;28;20010;-78
2023/08/09 12:20:39;;;;;;;2.78;1.55;;;;;;;;;;5017452;28;20025;-78
2023/08/09 12:23:04;;;;;;;3.90;1.90;;;;;;;;;;4999806;28;20418;-78
2023/08/09 12:25:30;;;;;;;1.90;1.60;;;;;;;;;;4998419;28;20580;-78
2023/08/09 12:27:55;;;;;;;2.03;1.50;;;;;;;;;;5003450;28;20053;-78
2023/08/09 12:30:20;;;;;;;3.90;1.90;;;;;;;;;;5001903;28;20387;-78
2023/08/09 12:32:45;;;;;;;2.88;1.80;;;;;;;;;;5000020;28;20493;-78
2023/08/09 12:35:11;;;;;;;3.35;3.00;;;;;;;;;;5002903;28;20091;-78
2023/08/09 12:37:36;;;;;;;2.47;2.28;;;;;;;;;;5003709;28;20072;-78
2023/08/09 12:40:05;;;;;;;2.13;1.90;;;;;;;;;;4996365;28;20402;-78
2023/08/09 12:42:31;;;;;;;4.38;1.90;;;;;;;;;;4997187;28;20048;-78
2023/08/09 12:44:56;;;;;;;2.90;1.70;;;;;;;;;;4998328;28;20491;-78
2023/08/09 12:47:21;;;;;;;1.60;1.50;;;;;;;;;;4998735;28;20052;-77
2023/08/09 12:49:46;;;;;;;3.42;1.65;;;;;;;;;;5000209;28;20058;-79
2023/08/09 12:52:12;;;;;;;1.48;1.38;;;;;;;;;;5015116;28;20042;-77
2023/08/09 12:54:37;;;;;;;2.85;1.48;;;;;;;;;;5002237;28;20346;-77
2023/08/09 12:57:02;;;;;;;4.15;1.50;;;;;;;;;;5018873;28;20010;-77
2023/08/09 12:59:28;;;;;;;3.22;1.95;;;;;;;;;;5001210;28;20506;-77
2023/08/09 13:01:53;;;;;;;2.92;1.63;;;;;;;;;;5014254;28;20506;-77
2023/08/09 13:04:23;;;;;;;4.78;2.00;;;;;;;;;;5005173;28;20042;-77
2023/08/09 13:06:49;;;;;;;2.50;1.60;;;;;;;;;;5013470;28;20042;-77
2023/08/09 13:09:14;;;;;;;3.83;1.73;;;;;;;;;;4993933;28;20022;-77
2023/08/09 13:11:40;;;;;;;2.72;1.70;;;;;;;;;;4999459;28;20478;-78
2023/08/09 13:14:06;;;;;;;1.60;1.50;;;;;;;;;;5001399;28;20418;-77
2023/08/09 13:16:31;;;;;;;5.20;1.63;;;;;;;;;;4999101;28;20148;-78
2023/08/09 13:18:57;;;;;;;3.88;1.60;;;;;;;;;;4998677;28;20050;-78
2023/08/09 13:21:22;;;;;;;1.77;1.63;;;;;;;;;;4997824;28;20050;-77
2023/08/09 13:23:47;;;;;;;2.85;1.65;;;;;;;;;;4998822;28;20033;-78
2023/08/09 13:26:13;;;;;;;5.63;2.15;;;;;;;;;;5001323;28;20081;-78
2023/08/09 13:28:38;;;;;;;2.58;1.75;;;;;;;;;;4992374;28;20550;-78
2023/08/09 13:31:04;;;;;;;3.05;1.90;;;;;;;;;;5004294;28;20030;-78
2023/08/09 13:33:29;;;;;;;4.30;1.70;;;;;;;;;;5012884;28;20074;-78
2023/08/09 13:35:55;;;;;;;3.20;1.73;;;;;;;;;;4999380;28;20018;-78
2023/08/09 13:38:47;;;;;;;2.35;1.50;;;;;;;;;;4996808;28;20034;-78
2023/08/09 13:41:12;;;;;;;1.60;1.50;;;;;;;;;;4996343;28;20077;-78
2023/08/09 13:43:38;;;;;;;3.50;1.42;;;;;;;;;;4998648;28;20459;-78
2023/08/09 13:46:05;;;;;;;3.05;1.70;;;;;;;;;;4998641;28;20034;-79
2023/08/09 13:48:30;;;;;;;2.00;1.80;;;;;;;;;;5000645;28;20108;-80
2023/08/09 13:50:55;;;;;;;1.55;1.45;;;;;;;;;;5017124;28;20022;-80
2023/08/09 13:53:21;;;;;;;2.38;1.42;;;;;;;;;;5019597;28;20427;-79
2023/08/09 13:55:46;;;;;;;2.88;2.15;;;;;;;;;;5001945;28;20413;-79
2023/08/09 13:58:12;;;;;;;3.58;1.75;;;;;;;;;;4996219;28;20026;-79
2023/08/09 14:00:38;;;;;;;2.35;1.30;;;;;;;;;;4999640;28;20037;-79
2023/08/09 14:03:10;;;;;;;3.88;1.85;;;;;;;;;;5014007;28;20030;-78
2023/08/09 14:05:36;;;;;;;3.47;1.92;;;;;;;;;;5010549;28;20482;-80
2023/08/09 14:08:04;;;;;;;1.60;1.50;;;;;;;;;;5000459;28;20099;-78
2023/08/09 14:10:30;;;;;;;4.30;1.92;;;;;;;;;;4996296;28;20034;-80
2023/08/09 14:12:56;;;;;;;4.15;1.75;;;;;;;;;;4996376;28;20034;-79
2023/08/09 14:15:28;;;;;;;4.05;1.58;;;;;;;;;;5124003;27;20451;-77
2023/08/09 14:17:54;;;;;;;4.43;1.88;;;;;;;;;;5095730;28;20028;-77
2023/08/09 14:20:19;;;;;;;1.90;1.70;;;;;;;;;;5071395;28;20036;-77
2023/08/09 14:22:50;;;;;;;5.15;1.95;;;;;;;;;;5091376;28;20036;-79
2023/08/09 14:25:17;;;;;;;3.38;1.70;;;;;;;;;;5076546;28;20028;-78
2023/08/09 14:27:43;;;;;;;1.40;1.15;;;;;;;;;;5093283;28;20082;-77
2023/08/09 14:30:09;;;;;;;2.10;1.60;;;;;;;;;;5071417;28;20491;-77
2023/08/09 14:32:35;;;;;;;4.07;1.98;;;;;;;;;;5097474;28;20032;-77
2023/08/09 14:35:00;;;;;;;4.53;1.85;;;;;;;;;;5085765;28;20047;-77
2023/08/09 14:37:25;;;;;;;3.95;1.90;;;;;;;;;;5089272;28;20064;-79
2023/08/09 14:39:51;;;;;;;3.22;1.70;;;;;;;;;;5087977;28;20028;-79
2023/08/09 14:42:16;;;;;;;2.13;1.92;;;;;;;;;;5089438;28;20506;-79